createdAt,value
2019-01-05T00:00:18.321Z,15.13
2019-01-05T00:03:12.283Z,5.17
2019-01-05T00:05:59.659Z,5.10
2019-01-05T00:08:43.560Z,6.20
2019-01-05T00:11:32.235Z,2.77
2019-01-05T00:14:23.812Z,4.20
2019-01-05T00:17:12.002Z,2.20
2019-01-05T00:20:04.903Z,8.07
2019-01-05T00:22:56.805Z,5.33
2019-01-05T00:25:59.110Z,4.50
2019-01-05T00:28:57.183Z,2.37
2019-01-05T00:31:46.322Z,6.27
2019-01-05T00:34:59.907Z,5.07
2019-01-05T00:37:46.060Z,3.50
2019-01-05T00:40:37.162Z,11.43
2019-01-05T00:43:35.734Z,4.70
2019-01-05T00:46:24.450Z,3.50
2019-01-05T00:49:26.395Z,8.00
2019-01-05T00:52:16.647Z,4.47
2019-01-05T00:55:05.355Z,8.40
2019-01-05T00:57:58.056Z,4.43
2019-01-05T01:00:45.640Z,12.70
2019-01-05T01:03:40.835Z,10.73
2019-01-05T01:06:24.087Z,10.20
2019-01-05T01:09:03.879Z,11.23
2019-01-05T01:11:48.607Z,18.20
2019-01-05T01:14:49.127Z,12.33
2019-01-05T01:17:37.895Z,19.43
2019-01-05T01:20:35.647Z,15.00
2019-01-05T01:23:27.347Z,14.90
2019-01-05T01:26:15.529Z,11.60
2019-01-05T01:29:14.047Z,8.23
2019-01-05T01:31:59.891Z,13.80
2019-01-05T01:34:48.199Z,14.60
2019-01-05T01:37:37.539Z,11.23
2019-01-05T01:40:34.247Z,15.03
2019-01-05T01:43:23.070Z,10.50
2019-01-05T01:46:12.234Z,4.43
2019-01-05T01:48:58.146Z,8.73
2019-01-05T01:51:50.800Z,8.60
2019-01-05T01:54:39.043Z,6.80
2019-01-05T01:57:30.859Z,5.20
2019-01-05T02:00:23.997Z,7.63
2019-01-05T02:03:21.798Z,2.00
2019-01-05T02:06:09.941Z,7.43
2019-01-05T02:09:10.112Z,6.17
2019-01-05T02:12:03.682Z,11.60
2019-01-05T02:14:56.451Z,6.60
2019-01-05T02:18:00.985Z,5.07
2019-01-05T02:21:06.042Z,6.93
2019-01-05T02:24:26.130Z,9.73
2019-01-05T02:27:30.271Z,8.00
2019-01-05T02:30:44.491Z,6.80
2019-01-05T02:34:04.051Z,7.30
2019-01-05T02:37:32.682Z,9.40
2019-01-05T02:40:49.304Z,8.60
2019-01-05T02:44:18.298Z,10.17
2019-01-05T02:47:53.115Z,8.30
2019-01-05T02:51:19.403Z,6.60
2019-01-05T02:54:44.987Z,10.70
2019-01-05T02:57:59.828Z,7.50
2019-01-05T03:01:25.694Z,8.73
2019-01-05T03:05:03.912Z,5.20
2019-01-05T03:08:33.391Z,4.30
2019-01-05T03:11:47.456Z,2.73
2019-01-05T03:15:05.218Z,8.57
2019-01-05T03:18:56.429Z,7.13
2019-01-05T03:22:20.716Z,4.47
2019-01-05T03:25:54.417Z,7.50
2019-01-05T03:29:13.773Z,2.50
2019-01-05T03:32:52.373Z,9.43
2019-01-05T03:36:14.246Z,5.80
2019-01-05T03:39:26.895Z,6.60
2019-01-05T03:42:37.531Z,2.60
2019-01-05T03:46:06.871Z,5.80
2019-01-05T03:49:29.267Z,1.20
2019-01-05T03:53:05.629Z,2.47
2019-01-05T03:56:29.719Z,1.70
2019-01-05T03:59:36.095Z,3.47
2019-01-05T04:03:03.837Z,3.17
2019-01-05T04:06:41.187Z,1.90
2019-01-05T04:09:54.994Z,4.87
2019-01-05T04:13:16.823Z,3.30
2019-01-05T04:16:49.840Z,3.70
2019-01-05T04:20:17.431Z,3.67
2019-01-05T04:24:01.019Z,4.73
2019-01-05T04:27:20.519Z,5.20
2019-01-05T04:30:50.734Z,4.30
2019-01-05T04:34:13.815Z,3.07
2019-01-05T04:37:19.048Z,3.67
2019-01-05T04:40:50.900Z,6.97
2019-01-05T04:44:09.883Z,2.90
2019-01-05T04:47:32.997Z,2.63
2019-01-05T04:50:29.864Z,10.87
2019-01-05T04:54:18.374Z,5.87
2019-01-05T04:57:56.831Z,3.73
2019-01-05T05:01:22.232Z,3.20
2019-01-05T05:04:22.994Z,1.13
2019-01-05T05:07:42.479Z,3.63
2019-01-05T05:11:10.983Z,2.60
2019-01-05T05:14:24.171Z,3.90
2019-01-05T05:17:58.407Z,5.20
2019-01-05T05:21:20.371Z,4.20
2019-01-05T05:24:46.677Z,3.50
2019-01-05T05:28:12.832Z,8.43
2019-01-05T05:31:37.971Z,4.10
2019-01-05T05:35:23.644Z,2.87
2019-01-05T05:39:05.331Z,2.90
2019-01-05T05:42:41.288Z,2.77
2019-01-05T05:46:20.443Z,3.83
2019-01-05T05:49:48.342Z,2.70
2019-01-05T05:53:12.299Z,4.30
2019-01-05T05:56:43.038Z,2.10
2019-01-05T06:00:18.283Z,6.90
2019-01-05T06:03:53.316Z,5.27
2019-01-05T06:07:40.732Z,1.13
2019-01-05T06:11:33.197Z,3.80
2019-01-05T06:15:10.709Z,4.93
2019-01-05T06:19:05.707Z,3.03
2019-01-05T06:22:21.379Z,2.23
2019-01-05T06:26:02.915Z,2.77
2019-01-05T06:29:22.265Z,3.23
2019-01-05T06:32:46.156Z,3.73
2019-01-05T06:36:17.255Z,2.17
2019-01-05T06:39:51.286Z,5.30
2019-01-05T06:43:21.563Z,4.00
2019-01-05T06:46:41.424Z,2.30
2019-01-05T06:50:38.644Z,6.87
2019-01-05T06:54:10.350Z,5.67
2019-01-05T06:57:31.547Z,14.57
2019-01-05T07:00:59.396Z,4.40
2019-01-05T07:04:12.567Z,6.33
2019-01-05T07:07:35.123Z,6.10
2019-01-05T07:11:38.290Z,6.90
2019-01-05T07:15:18.313Z,6.27
2019-01-05T07:18:37.483Z,10.47
2019-01-05T07:21:53.272Z,8.00
2019-01-05T07:25:31.559Z,9.17
2019-01-05T07:29:09.707Z,7.23
2019-01-05T07:32:56.354Z,6.83
2019-01-05T07:36:14.036Z,7.47
2019-01-05T07:39:39.523Z,6.20
2019-01-05T07:43:01.955Z,9.87
2019-01-05T07:46:28.102Z,7.80
2019-01-05T07:50:15.112Z,12.80
2019-01-05T07:53:47.096Z,12.60
2019-01-05T07:57:25.506Z,6.17
2019-01-05T08:00:39.375Z,11.60
2019-01-05T08:04:00.372Z,14.50
2019-01-05T08:07:06.915Z,8.10
2019-01-05T08:10:55.314Z,9.70
2019-01-05T08:14:33.074Z,8.43
2019-01-05T08:18:20.298Z,11.67
2019-01-05T08:21:49.771Z,12.00
2019-01-05T08:25:13.608Z,10.53
2019-01-05T08:28:38.811Z,9.20
2019-01-05T08:32:03.090Z,7.63
2019-01-05T08:35:32.291Z,11.63
2019-01-05T08:38:47.727Z,16.83
2019-01-05T08:42:09.219Z,10.70
2019-01-05T08:45:25.195Z,11.57
2019-01-05T08:48:47.456Z,7.50
2019-01-05T08:52:25.182Z,10.50
2019-01-05T08:55:56.162Z,11.17
2019-01-05T08:59:32.707Z,11.50
2019-01-05T09:02:46.234Z,7.83
2019-01-05T09:06:24.482Z,8.63
2019-01-05T09:10:08.950Z,10.97
2019-01-05T09:13:39.847Z,13.50
2019-01-05T09:17:14.659Z,11.67
2019-01-05T09:20:39.276Z,10.27
2019-01-05T09:24:25.882Z,9.80
2019-01-05T09:28:12.112Z,13.20
2019-01-05T09:31:49.396Z,16.20
2019-01-05T09:35:33.335Z,14.90
2019-01-05T09:39:00.422Z,13.10
2019-01-05T09:42:25.066Z,11.37
2019-01-05T09:46:03.073Z,19.33
2019-01-05T09:49:58.243Z,14.63
2019-01-05T09:53:19.952Z,16.23
2019-01-05T09:56:58.563Z,15.33
2019-01-05T10:00:26.039Z,22.10
2019-01-05T10:04:13.727Z,11.43
2019-01-05T10:07:41.026Z,15.10
2019-01-05T10:11:17.623Z,16.27
2019-01-05T10:14:39.771Z,14.93
2019-01-05T10:18:07.359Z,12.37
2019-01-05T10:21:27.123Z,11.60
2019-01-05T10:25:14.878Z,14.60
2019-01-05T10:28:21.959Z,18.17
2019-01-05T10:32:07.743Z,17.23
2019-01-05T10:35:54.664Z,10.17
2019-01-05T10:39:26.572Z,21.87
2019-01-05T10:42:53.791Z,16.33
2019-01-05T10:46:39.614Z,16.97
2019-01-05T10:50:14.639Z,13.43
2019-01-05T10:53:34.907Z,22.07
2019-01-05T10:57:02.947Z,13.57
2019-01-05T11:01:17.239Z,12.83
2019-01-05T11:04:49.204Z,16.03
2019-01-05T11:08:29.197Z,18.43
2019-01-05T11:12:09.278Z,17.07
2019-01-05T11:15:21.455Z,18.13
2019-01-05T11:18:48.776Z,15.93
2019-01-05T11:22:22.914Z,14.00
2019-01-05T11:26:04.107Z,15.00
2019-01-05T11:29:37.188Z,16.40
2019-01-05T11:33:17.683Z,16.43
2019-01-05T11:36:39.471Z,14.30
2019-01-05T11:40:36.116Z,15.37
2019-01-05T11:43:58.382Z,26.13
2019-01-05T11:47:31.927Z,13.40
2019-01-05T11:51:10.009Z,17.80
2019-01-05T11:54:57.409Z,15.17
2019-01-05T11:58:35.665Z,11.37
2019-01-05T12:01:51.327Z,18.60
2019-01-05T12:05:10.648Z,15.47
2019-01-05T12:08:39.117Z,20.37
2019-01-05T12:12:19.452Z,17.73
2019-01-05T12:15:50.015Z,23.00
2019-01-05T12:19:28.115Z,21.50
2019-01-05T12:22:51.470Z,24.00
2019-01-05T12:26:32.868Z,30.53
2019-01-05T12:30:01.220Z,18.67
2019-01-05T12:33:36.329Z,29.37
2019-01-05T12:36:49.538Z,18.43
2019-01-05T12:40:25.710Z,22.87
2019-01-05T12:43:47.875Z,23.83
2019-01-05T12:47:40.018Z,31.90
2019-01-05T12:51:01.424Z,22.50
2019-01-05T12:54:46.163Z,23.83
2019-01-05T12:58:21.355Z,22.00
2019-01-05T13:01:55.274Z,22.17
2019-01-05T13:05:21.961Z,25.97
2019-01-05T13:08:40.493Z,20.27
2019-01-05T13:12:12.575Z,46.07
2019-01-05T13:15:34.003Z,25.33
2019-01-05T13:19:01.947Z,24.30
2019-01-05T13:22:51.004Z,21.77
2019-01-05T13:26:11.658Z,23.20
2019-01-05T13:29:40.430Z,19.47
2019-01-05T13:32:51.619Z,27.43
2019-01-05T13:36:24.224Z,27.80
2019-01-05T13:39:53.042Z,24.07
2019-01-05T13:43:08.389Z,21.87
2019-01-05T13:46:46.429Z,21.50
2019-01-05T13:50:17.264Z,32.57
2019-01-05T13:53:51.731Z,18.73
2019-01-05T13:57:10.243Z,28.10
2019-01-05T14:00:01.759Z,26.43
2019-01-05T14:02:53.287Z,27.37
2019-01-05T14:05:41.025Z,26.20
2019-01-05T14:08:32.031Z,32.13
2019-01-05T14:11:29.699Z,22.43
2019-01-05T14:14:17.090Z,21.50
2019-01-05T14:17:17.756Z,21.37
2019-01-05T14:20:11.672Z,20.93
2019-01-05T14:22:54.315Z,25.10
2019-01-05T14:25:33.566Z,27.53
2019-01-05T14:28:21.010Z,23.27
2019-01-05T14:31:08.455Z,26.10
2019-01-05T14:33:55.895Z,27.83
2019-01-05T14:36:35.285Z,27.20
2019-01-05T14:39:35.711Z,22.87
2019-01-05T14:42:23.433Z,22.30
2019-01-05T14:45:08.209Z,21.57
2019-01-05T14:47:55.523Z,21.87
2019-01-05T14:50:43.146Z,22.13
2019-01-05T14:53:30.947Z,19.07
2019-01-05T14:56:18.742Z,32.00
2019-01-05T14:59:06.671Z,21.10
2019-01-05T15:01:54.187Z,20.93
2019-01-05T15:04:43.775Z,17.73
2019-01-05T15:07:30.368Z,20.60
2019-01-05T15:10:17.828Z,22.47
2019-01-05T15:13:05.260Z,21.57
2019-01-05T15:15:51.938Z,27.90
2019-01-05T15:18:43.464Z,23.70
2019-01-05T15:21:47.404Z,27.10
2019-01-05T15:24:38.270Z,26.43
2019-01-05T15:27:27.015Z,21.37
2019-01-05T15:30:14.667Z,27.60
2019-01-05T15:32:57.065Z,21.37
2019-01-05T15:35:44.529Z,13.93
2019-01-05T15:38:32.438Z,18.93
2019-01-05T15:41:19.911Z,24.50
2019-01-05T15:44:06.458Z,26.43
2019-01-05T15:46:53.885Z,26.53
2019-01-05T15:49:50.011Z,29.43
2019-01-05T15:52:37.538Z,18.70
2019-01-05T15:55:25.535Z,30.37
2019-01-05T15:58:12.934Z,21.27
2019-01-05T16:00:57.043Z,23.93
2019-01-05T16:03:39.766Z,28.93
2019-01-05T16:06:27.663Z,23.10
2019-01-05T16:09:15.307Z,32.30
2019-01-05T16:12:10.955Z,24.00
2019-01-05T16:14:58.640Z,25.77
2019-01-05T16:17:40.383Z,23.23
2019-01-05T16:20:43.459Z,69.47
2019-01-05T16:23:27.415Z,31.40
2019-01-05T16:26:16.171Z,25.80
2019-01-05T16:29:23.471Z,21.47
2019-01-05T16:32:21.430Z,25.07
2019-01-05T16:35:16.227Z,21.13
2019-01-05T16:38:16.771Z,27.30
2019-01-05T16:41:04.382Z,33.33
2019-01-05T16:43:59.575Z,29.47
2019-01-05T16:46:51.111Z,18.40
2019-01-05T16:49:38.879Z,20.10
2019-01-05T16:52:26.272Z,29.90
2019-01-05T16:55:17.894Z,20.40
2019-01-05T16:58:08.290Z,19.33
2019-01-05T17:01:05.078Z,21.30
2019-01-05T17:03:59.327Z,18.33
2019-01-05T17:06:47.222Z,26.10
2019-01-05T17:09:34.631Z,30.03
2019-01-05T17:12:29.446Z,23.50
2019-01-05T17:15:24.391Z,27.27
2019-01-05T17:18:13.035Z,25.47
2019-01-05T17:20:57.090Z,26.40
2019-01-05T17:23:45.253Z,34.43
2019-01-05T17:26:29.988Z,35.47
2019-01-05T17:29:17.314Z,38.43
2019-01-05T17:32:18.042Z,26.90
2019-01-05T17:35:05.567Z,18.57
2019-01-05T17:37:47.046Z,24.50
2019-01-05T17:40:47.704Z,24.90
2019-01-05T17:43:39.162Z,32.40
2019-01-05T17:46:23.559Z,23.97
2019-01-05T17:49:11.312Z,24.60
2019-01-05T17:51:58.738Z,23.87
2019-01-05T17:54:47.481Z,16.80
2019-01-05T17:57:39.278Z,31.23
2019-01-05T18:00:33.486Z,25.17
2019-01-05T18:03:31.162Z,20.03
2019-01-05T18:06:23.959Z,27.17
2019-01-05T18:09:18.744Z,41.27
2019-01-05T18:12:07.782Z,38.37
2019-01-05T18:14:55.456Z,36.10
2019-01-05T18:17:37.409Z,26.67
2019-01-05T18:20:22.397Z,35.63
2019-01-05T18:23:09.826Z,26.30
2019-01-05T18:25:57.599Z,40.37
2019-01-05T18:28:45.342Z,26.57
2019-01-05T18:31:43.247Z,32.07
2019-01-05T18:34:31.003Z,30.83
2019-01-05T18:37:18.336Z,28.90
2019-01-05T18:40:05.711Z,41.43
2019-01-05T18:42:49.021Z,29.80
2019-01-05T18:45:40.842Z,25.20
2019-01-05T18:48:40.292Z,32.20
2019-01-05T18:51:19.403Z,29.43
2019-01-05T18:54:03.257Z,33.57
2019-01-05T18:56:57.810Z,33.13
2019-01-05T18:59:40.016Z,23.07
2019-01-05T19:02:27.620Z,29.17
2019-01-05T19:05:07.623Z,38.00
2019-01-05T19:07:55.371Z,28.10
2019-01-05T19:10:48.610Z,37.30
2019-01-05T19:13:40.247Z,25.63
2019-01-05T19:16:32.139Z,26.90
2019-01-05T19:19:39.513Z,24.77
2019-01-05T19:22:26.892Z,36.50
2019-01-05T19:25:21.259Z,26.43
2019-01-05T19:28:01.571Z,38.13
2019-01-05T19:31:02.659Z,32.30
2019-01-05T19:33:51.412Z,29.57
2019-01-05T19:36:39.102Z,36.43
2019-01-05T19:39:33.740Z,34.47
2019-01-05T19:42:21.376Z,30.57
2019-01-05T19:45:16.600Z,32.00
2019-01-05T19:48:08.299Z,27.50
2019-01-05T19:50:57.996Z,32.97
2019-01-05T19:53:42.523Z,41.43
2019-01-05T19:56:47.169Z,36.73
2019-01-05T19:59:28.139Z,45.80
2019-01-05T20:02:19.697Z,36.93
2019-01-05T20:05:14.444Z,27.80
2019-01-05T20:08:01.494Z,25.80
2019-01-05T20:10:48.908Z,29.83
2019-01-05T20:13:37.855Z,36.07
2019-01-05T20:16:25.354Z,34.20
2019-01-05T20:19:21.123Z,25.47
2019-01-05T20:22:09.679Z,32.00
2019-01-05T20:24:57.169Z,34.50
2019-01-05T20:27:44.629Z,44.83
2019-01-05T20:30:45.334Z,36.57
2019-01-05T20:33:39.468Z,42.67
2019-01-05T20:36:27.115Z,35.83
2019-01-05T20:39:24.893Z,32.77
2019-01-05T20:42:19.830Z,44.23
2019-01-05T20:44:58.960Z,39.90
2019-01-05T20:47:46.321Z,54.53
2019-01-05T20:50:33.592Z,45.13
2019-01-05T20:53:21.543Z,36.10
2019-01-05T20:56:23.199Z,39.13
2019-01-05T20:59:10.621Z,34.30
2019-01-05T21:01:59.297Z,41.47
2019-01-05T21:04:46.722Z,40.90
2019-01-05T21:07:44.407Z,39.53
2019-01-05T21:10:45.423Z,31.37
2019-01-05T21:13:52.338Z,42.67
2019-01-05T21:16:49.675Z,28.13
2019-01-05T21:19:37.074Z,43.70
2019-01-05T21:22:27.383Z,33.93
2019-01-05T21:25:14.775Z,37.70
2019-01-05T21:28:03.458Z,42.23
2019-01-05T21:30:51.912Z,45.53
2019-01-05T21:33:39.248Z,44.60
2019-01-05T21:36:40.207Z,36.50
2019-01-05T21:39:27.778Z,37.37
2019-01-05T21:42:21.284Z,41.33
2019-01-05T21:45:19.346Z,35.60
2019-01-05T21:48:06.657Z,29.63
2019-01-05T21:50:55.370Z,33.87
2019-01-05T21:53:44.770Z,29.93
2019-01-05T21:56:38.075Z,38.37
2019-01-05T21:59:30.276Z,42.73
2019-01-05T22:02:19.065Z,32.80
2019-01-05T22:05:10.441Z,36.47
2019-01-05T22:07:58.175Z,37.50
2019-01-05T22:10:59.091Z,47.53
2019-01-05T22:14:00.154Z,36.80
2019-01-05T22:16:47.522Z,37.83
2019-01-05T22:19:36.207Z,33.00
2019-01-05T22:22:24.935Z,48.77
2019-01-05T22:25:28.999Z,42.30
2019-01-05T22:28:27.766Z,37.10
2019-01-05T22:31:19.608Z,39.67
2019-01-05T22:34:14.502Z,34.33
2019-01-05T22:37:02.355Z,36.23
2019-01-05T22:39:50.035Z,62.03
2019-01-05T22:42:37.544Z,44.77
2019-01-05T22:45:36.338Z,44.00
2019-01-05T22:48:28.114Z,40.83
2019-01-05T22:51:15.617Z,56.93
2019-01-05T22:54:13.219Z,50.20
2019-01-05T22:57:04.803Z,50.73
2019-01-05T22:59:52.577Z,48.13
2019-01-05T23:02:51.691Z,42.93
2019-01-05T23:05:49.385Z,46.40
2019-01-05T23:08:32.910Z,45.87
2019-01-05T23:11:12.869Z,53.20
2019-01-05T23:14:19.839Z,48.93
2019-01-05T23:17:05.682Z,43.50
2019-01-05T23:19:53.150Z,56.63
2019-01-05T23:22:53.984Z,46.13
2019-01-05T23:25:45.679Z,31.77
2019-01-05T23:28:34.744Z,33.37
2019-01-05T23:31:22.163Z,31.83
2019-01-05T23:34:06.491Z,22.00
2019-01-05T23:36:55.198Z,29.60
2019-01-05T23:39:56.313Z,24.23
2019-01-05T23:42:36.157Z,21.17
2019-01-05T23:45:33.474Z,13.83
2019-01-05T23:48:21.358Z,16.13
2019-01-05T23:51:08.987Z,19.67
2019-01-05T23:53:56.358Z,22.70
2019-01-05T23:56:43.759Z,23.37
2019-01-05T23:59:46.913Z,18.13
